Hovedside
METAR-TAF:

METAR-TAF

Lufthavner :

Umeå lufthavn

Umeå, Sverige

breddegrad: 63-48N, lengdegrad: 020-17E, høyde over havet: 7 m

Gjeldene værobservasjon

Denne rapporten ble laget for 35 minutter siden, klokken 04:20 UTC
Vind 10 kt fra Nordvest
Temperatur 11°C
Luftfuktighet 71%
Trykk 1003 hPa
Sikt 10 km eller mer
ingen skyer under 1500 m og ingen bygeskyer

METAR: ESNU 210420Z 31010KT CAVOK 11/06 Q1003

Tid: 06:55 (04:55 UTC)

Varsel

Denne rapporten ble laget for 2 timer og 25 minutter siden, klokken 02:30 UTC
Varsel gyldig fra 21. klokken 03 UTC til 21. klokken 12 UTC
Vind 5 kt fra Vest
Sikt 10 km eller mer
ingen skyer under 1500 m og ingen bygeskyer
Blir
fra 21. klokken 09 UTC til 21. klokken 11 UTC
Vind 10 kt fra Sør

TAF: ESNU 210230Z 2103/2112 28005KT CAVOK BECMG 2109/2111 17010KT

Værobservasjoner og værvarsel for over 4000 flyplasser (METAR- og TAF-rapporter).

Tilgjengelige stasjoner er representert av de røde og gule prikkene på kartet.

Hold musepekeren over prikken for å se navnet på stasjonen.

Klikk så for å se værobservasjoner og -varsler.

For å forandre kartet kan du klikke på den grønne knappen med svart kryss for å zoome inn, på den grønne knappen med strek for å zoome ut, eller på de grønne pilene for å se tilstøtende kart.


METAR-TAF: